Aktuální počasí v Česku a ve světě - METAR

Seznam meteostanic umístěných nejčasteji na letišti v ČR a ve světě

Vyhledat místa podle abecedy:
A B C D E F G H I J K L M N O P Q R S T U V W X Y Z

Filtrovat:

ID stanice:
a/nebo
Název místa (fulltext):
 
Místo (ID)Naposledy načteno 
Zadar (LDZD) 16.07.2020 14:00 UTC Zobrazit METAR
LDZD 161400Z 30011KT 250V340 9999 FEW060 27/15 Q1013 NOSIG
Zagreb (LDZA) 16.07.2020 14:00 UTC Zobrazit METAR
LDZA 161400Z VRB02KT 9999 FEW047 26/13 Q1013 NOSIG
Zaragoza (LEZG) 16.07.2020 14:00 UTC Zobrazit METAR
LEZG 161400Z 30013KT 260V340 CAVOK 29/12 Q1018
Zhezkazgan (UAKD) Zatím nenačteno  
Zurich (LSZH) 16.07.2020 13:50 UTC Zobrazit METAR
LSZH 161350Z 29005KT 240V320 9999 -SHRA FEW028 SCT035 BKN050 16/12 Q1020 TEMPO SHRA
Reklama

Počasí na Váš email

Emaily jsou bez reklamy a bez spamu



Odhlásit newsletter



❤️ Podpořte nás

Napište o nás recenzi na Google
Ohodnoťte nás na Firmy.cz

Pošlete nám finanční podporu - firma nedostala žádné dotace ani podporu z Coronaviru, zato letos platíme vyšší daně.
Další české internetové stránky (nejen) o počasí najdete v katalogu TOPlist - weby o počasí nebo vyhledejte na internetu, co jste tu na 🌞 Slunečnu ⛅ zatím nenašli:
⬆️ Posunout nahoru ⬆️
Reklama